メインページ
METAR-TAF:

METAR-TAF

空港 :

プンタアレナス, チリ

緯度: 53-00S, 経度: 070-51W, 海抜: 37m

現時点の気象観測

当レポートは38分前の05:00(UTC)に作成
南西の風 9kt
気温 5°C
湿度 65%
気圧 1003 hPa
視程10km以上
高度4000ftの雲はほとんどない
高度8000ftの千切れ雲あり

METAR: SCCI 170500Z 23009KT 9999 FEW040 BKN080 05/M01 Q1003 NOSIG

時間: 02:38 (05:38 UTC)

予報

当レポートは7時間4分前の22:34(UTC)に作成
予報は17日の 00時(UTC)から 18日の 00時(UTC)まで有効
西/南西の風 13kt、最大23ktの突風を伴う
視程10km以上
高度3500ftの雲は散在している
17日の 00時(UTC)から 17日の 03時(UTC)まで一時的に
西/南西の風 20kt
17日の 06時(UTC)から 17日の 12時(UTC)まで一時的に
視程10km以上
1,500メートル以下は雲なし、積乱雲なし
17日の 10時(UTC)から 17日の 12時(UTC)まで徐々に
西/北西の風 12kt、最大23ktの突風を伴う
17日の 20時(UTC)から 17日の 22時(UTC)まで徐々に
西/北西の風 20kt、最大30ktの突風を伴う
17日の 22時(UTC)から 18日の 00時(UTC)まで一時的に
西/北西の風 30kt、最大40ktの突風を伴う

TAF: SCCI 162234Z 1700/1800 25013G23KT 9999 SCT035 TN03/1709Z TX12/1719Z TEMPO 1700/1703 24020KT TEMPO 1706/1712 CAVOK BECMG 1710/1712 29012G23KT BECMG 1720/1722 29020G30KT TEMPO 1722/1800 30030G40KT

4,000以上の空港の気象観測と天気予報(METAR報とTAF報)

利用可能な観測所は地図上に黄色い丸と赤い丸で示す。

丸の上にカーソルを重ねると観測所名を参照できる。

次にクリックすると気象観測と天気予報を参照できる。

マップの切り替え:黒色「×」印の緑ボタンをクリックして拡大、「-」印の緑ボタンをクリックして縮小、緑色の三角印をクリックして隣りの地図に切り替え


METAR-TAF: